Corozal, Belize
Current Conditions -  °F | °C
As of 8:43 PM on Tuesday 27 Jan 2015 (Local Time) from MMCM Reporting Station
Clear Clear  
Wind Chill: 73°   Ceiling: Unl
Heat Index: 73°   Visibility: 7mi
Dew Point: 68°   Wind: 0mph
Humidity: 83%   Direction: NA
Pressure: 30.14"   Gusts: NA
Location:  18.4°N, 88.39°W
Report Text: MMCM 280243Z 00000KT 7SM SKC 23/20 A3014 RMK RTS
Loading
Personal Weather Stations






























Interactive Weather Map New forecast layout! Learn more

10-Day Weather Forecast

Advertisements
Track Severe Weather on mobile